Terminal Aerodrome Forecast
Issued by NWS

Home | Current Version | Previous Version | Text Only | Print | Product List | Glossary On
Versions: 1 2 3 4 5 6 7 8 9 10 11 12 13 14 15 16 17 18 19 20 21 22 23 24 25 26 27 28 29 30 31 32 33 34 35 36 37 38 39 40 41 42 43 44
000
FTUS43 KDMX 011142
TAFFOD
TAF
KFOD 011142Z 0112/0212 22008KT P6SM VCSH BKN012 OVC035
      TEMPO 0112/0113 BKN009
     FM011500 31008KT P6SM BKN035
     FM012100 VRB02KT P6SM SCT050
     FM020300 27003KT P6SM VCSH BKN030
     FM020700 VRB02KT P6SM BKN050=

USA.gov is the U.S. government's official web portal to all federal, state and local government web resources and services.